Time;durP1;ratioP1;P1;durP2;ratioP2;P2;SDS_P1;SDS_P2;PMS_P1;PMS_P2;Temp;Humidity;BMP_temperature;BMP_pressure;BME280_temperature;BME280_humidity;BME280_pressure;Samples;Min_cycle;Max_cycle;Signal;HPM_P1;HPM_P2
2022/06/26 00:02:25;;;;;;;8.28;6.03;;;;;;;16.20;98.28;100225.56;1743325;82;21039;-68
2022/06/26 00:04:52;;;;;;;11.38;6.10;;;;;;;16.17;98.63;100219.08;1743406;82;20990;-69
2022/06/26 00:07:18;;;;;;;14.43;6.30;;;;;;;16.13;99.14;100227.24;1743970;82;20925;-69
2022/06/26 00:09:45;;;;;;;12.28;5.95;;;;;;;16.11;99.88;100230.94;1743347;82;21761;-69
2022/06/26 00:12:11;;;;;;;10.68;6.00;;;;;;;16.07;100.00;100235.56;1719824;80;21054;-67
2022/06/26 00:14:38;;;;;;;9.13;6.30;;;;;;;16.04;100.00;100233.09;1662469;86;21018;-66
2022/06/26 00:17:04;;;;;;;9.15;6.47;;;;;;;16.02;100.00;100237.63;1662248;85;21014;-66
2022/06/26 00:19:32;;;;;;;8.85;6.22;;;;;;;15.99;100.00;100239.16;1655058;86;21814;-66
2022/06/26 00:22:00;;;;;;;9.80;5.75;;;;;;;15.98;100.00;100239.23;1662171;86;21774;-65
2022/06/26 00:24:26;;;;;;;11.03;5.80;;;;;;;15.97;100.00;100243.69;1646975;86;21589;-66
2022/06/26 00:26:53;;;;;;;8.10;5.87;;;;;;;15.96;100.00;100235.80;1669884;79;20946;-68
2022/06/26 00:29:20;;;;;;;11.25;6.12;;;;;;;15.96;100.00;100243.29;1777685;80;21006;-69
2022/06/26 00:31:47;;;;;;;8.98;6.03;;;;;;;15.94;100.00;100242.52;1777490;80;20990;-70
2022/06/26 00:34:14;;;;;;;9.33;5.60;;;;;;;15.93;100.00;100244.33;1777849;80;21752;-71
2022/06/26 00:36:41;;;;;;;9.25;6.12;;;;;;;15.93;100.00;100247.46;1791327;80;20932;-70
2022/06/26 00:39:07;;;;;;;9.63;6.03;;;;;;;15.91;100.00;100246.69;1791652;80;21146;-68
2022/06/26 00:41:39;;;;;;;7.58;5.72;;;;;;;15.89;100.00;100247.25;1775925;80;21049;-69
2022/06/26 00:44:26;;;;;;;7.62;5.70;;;;;;;15.87;100.00;100241.16;1797475;79;21032;-68
2022/06/26 00:46:52;;;;;;;9.78;6.35;;;;;;;15.86;100.00;100244.78;1792170;79;21781;-70
2022/06/26 00:49:19;;;;;;;8.08;5.83;;;;;;;15.83;100.00;100238.33;1797523;79;20993;-67
2022/06/26 00:51:51;;;;;;;9.28;5.78;;;;;;;15.82;100.00;100241.91;1797355;79;21022;-69
2022/06/26 00:54:20;;;;;;;9.40;6.25;;;;;;;15.79;100.00;100240.28;1830810;78;21021;-69
2022/06/26 00:56:49;;;;;;;7.10;6.00;;;;;;;15.77;100.00;100248.80;1825514;78;21020;31
2022/06/26 00:59:16;;;;;;;12.98;5.87;;;;;;;15.76;100.00;100247.55;1689438;85;21307;-69
2022/06/26 01:01:43;;;;;;;9.38;5.30;;;;;;;15.73;100.00;100244.16;1734109;82;20967;-69
2022/06/26 01:04:10;;;;;;;7.42;5.62;;;;;;;15.73;100.00;100246.81;1695995;84;21537;-69
2022/06/26 01:06:38;;;;;;;13.50;6.00;;;;;;;15.72;100.00;100239.77;1693032;84;21005;-70
2022/06/26 01:09:04;;;;;;;8.78;6.03;;;;;;;15.72;100.00;100245.08;1711013;83;20956;-68
2022/06/26 01:11:32;;;;;;;9.33;5.90;;;;;;;15.72;100.00;100242.43;1663809;86;21122;-68
2022/06/26 01:14:00;;;;;;;8.38;5.83;;;;;;;15.68;100.00;100242.66;1701960;81;20988;-68
2022/06/26 01:16:26;;;;;;;10.80;6.10;;;;;;;15.67;100.00;100248.44;1671184;84;21528;-70
2022/06/26 01:18:55;;;;;;;13.48;6.25;;;;;;;15.66;100.00;100248.52;1734066;82;21035;-69
2022/06/26 01:21:23;;;;;;;9.70;5.97;;;;;;;15.64;100.00;100254.38;1733656;82;20994;-69
2022/06/26 01:23:50;;;;;;;7.80;5.65;;;;;;;15.62;100.00;100246.52;1733924;82;21024;-70
2022/06/26 01:26:17;;;;;;;10.13;6.40;;;;;;;15.60;100.00;100252.39;1733653;82;21548;-70
2022/06/26 01:28:44;;;;;;;7.12;5.45;;;;;;;15.60;100.00;100248.41;1735485;80;20940;-69
2022/06/26 01:31:11;;;;;;;6.35;5.20;;;;;;;15.61;100.00;100255.41;1733720;82;20999;-68
2022/06/26 01:33:39;;;;;;;8.45;5.62;;;;;;;15.61;100.00;100260.72;1733987;82;21009;-68
2022/06/26 01:36:09;;;;;;;7.57;5.83;;;;;;;15.63;100.00;100261.50;1733906;82;21261;-68
2022/06/26 01:38:37;;;;;;;8.35;5.90;;;;;;;15.64;100.00;100264.52;1727354;81;21277;-68
2022/06/26 01:41:05;;;;;;;9.58;5.62;;;;;;;15.66;100.00;100265.77;1733700;82;20913;-69
2022/06/26 01:43:33;;;;;;;11.30;5.87;;;;;;;15.67;100.00;100260.39;1740852;81;20989;-65
2022/06/26 01:46:00;;;;;;;9.93;4.85;;;;;;;15.71;100.00;100265.07;1744663;82;20978;-66
2022/06/26 01:48:34;;;;;;;8.00;5.35;;;;;;;15.73;100.00;100260.09;1738071;82;21198;-65
2022/06/26 01:51:02;;;;;;;7.72;5.10;;;;;;;15.78;100.00;100265.59;1736524;82;20987;-67
2022/06/26 01:53:30;;;;;;;8.18;5.28;;;;;;;15.78;100.00;100265.59;1755032;81;20970;-66
2022/06/26 01:55:56;;;;;;;7.17;5.33;;;;;;;15.79;100.00;100271.30;1767014;81;20947;-66
2022/06/26 01:58:25;;;;;;;5.67;4.80;;;;;;;15.80;100.00;100270.34;1744633;79;20995;-70
2022/06/26 02:00:53;;;;;;;10.65;5.58;;;;;;;15.85;100.00;100280.22;1725853;83;21846;-69
2022/06/26 02:03:22;;;;;;;8.40;5.28;;;;;;;15.89;100.00;100283.09;1725414;81;20968;-70
2022/06/26 02:05:50;;;;;;;11.08;5.78;;;;;;;15.90;100.00;100280.36;1726139;83;21503;-69
2022/06/26 02:08:17;;;;;;;9.68;5.58;;;;;;;15.92;100.00;100281.14;1725928;83;20952;-68
2022/06/26 02:13:36;;;;;;;6.97;5.15;;;;;;;15.96;100.00;100293.75;1716120;80;21119;-73
2022/06/26 02:16:10;;;;;;;10.15;4.95;;;;;;;15.98;100.00;100293.20;1709409;82;21089;-70
2022/06/26 02:18:39;;;;;;;9.28;5.20;;;;;;;16.01;100.00;100295.70;1709205;84;21087;-69
2022/06/26 02:21:10;;;;;;;8.88;5.67;;;;;;;16.05;100.00;100302.53;1709394;84;20984;-69
2022/06/26 02:23:37;;;;;;;14.38;5.72;;;;;;;16.07;100.00;100295.81;1709259;84;21527;-68
2022/06/26 02:26:04;;;;;;;9.45;5.67;;;;;;;16.11;100.00;100304.84;1709545;82;21112;-70
2022/06/26 02:28:32;;;;;;;8.53;5.65;;;;;;;16.18;100.00;100304.51;1685422;79;20978;-71
2022/06/26 02:30:58;;;;;;;10.72;5.40;;;;;;;16.21;100.00;100302.52;1661249;86;21511;-71
2022/06/26 02:33:28;;;;;;;7.92;5.37;;;;;;;16.29;100.00;100302.09;1661556;85;21023;-69
2022/06/26 02:35:55;;;;;;;7.05;5.40;;;;;;;16.35;100.00;100305.70;1661598;86;21017;-70
2022/06/26 02:38:23;;;;;;;7.03;4.80;;;;;;;16.43;100.00;100307.45;1661348;86;22231;-70
2022/06/26 02:40:50;;;;;;;5.60;4.95;;;;;;;16.52;100.00;100306.91;1661605;84;21022;-69
2022/06/26 02:43:18;;;;;;;10.55;5.20;;;;;;;16.61;100.00;100306.84;1669167;81;20999;-67
2022/06/26 02:49:39;;;;;;;8.78;5.33;;;;;;;16.79;100.00;100308.88;1708345;83;21002;-70
2022/06/26 02:52:08;;;;;;;10.10;5.42;;;;;;;16.94;100.00;100310.63;1709238;83;21503;-68
2022/06/26 02:54:35;;;;;;;8.50;4.80;;;;;;;17.06;99.72;100308.17;1707658;83;21008;-69
2022/06/26 02:57:07;;;;;;;8.03;4.60;;;;;;;17.17;99.47;100311.03;1709167;84;21062;-68
2022/06/26 02:59:34;;;;;;;6.62;4.65;;;;;;;17.26;98.87;100310.47;1679318;82;21013;-70
2022/06/26 03:02:01;;;;;;;9.25;5.22;;;;;;;17.38;97.92;100315.02;1674534;85;21053;-69
2022/06/26 03:04:42;;;;;;;8.03;5.20;;;;;;;17.53;97.60;100317.66;1674108;85;21257;-68
2022/06/26 03:07:09;;;;;;;10.85;5.03;;;;;;;17.67;96.91;100312.34;1674634;85;21050;-69
2022/06/26 03:09:41;;;;;;;6.03;5.00;;;;;;;17.80;95.80;100317.24;1673680;85;20931;-70
2022/06/26 03:12:08;;;;;;;9.33;5.45;;;;;;;17.96;95.30;100324.29;1674330;85;20958;-68
2022/06/26 03:14:38;;;;;;;10.55;4.80;;;;;;;18.10;94.09;100324.24;1653675;82;20959;-70
2022/06/26 03:17:05;;;;;;;10.28;5.05;;;;;;;18.27;92.48;100326.27;1645128;87;21120;-69
2022/06/26 03:19:31;;;;;;;9.48;5.17;;;;;;;18.43;91.69;100328.33;1644838;87;21018;-70
2022/06/26 03:21:58;;;;;;;7.15;4.92;;;;;;;18.59;90.17;100334.34;1644867;87;21082;-69
2022/06/26 03:24:24;;;;;;;9.50;4.87;;;;;;;18.74;89.12;100332.92;1644879;87;20983;-69
2022/06/26 03:26:52;;;;;;;9.60;4.92;;;;;;;18.88;87.85;100338.20;1644912;87;21003;-70
2022/06/26 03:29:19;;;;;;;7.70;4.58;;;;;;;19.02;86.70;100331.91;1733420;81;21697;-65
2022/06/26 03:31:46;;;;;;;6.55;4.50;;;;;;;19.14;85.69;100327.53;1761198;81;20979;-67
2022/06/26 03:34:13;;;;;;;5.62;4.70;;;;;;;19.27;84.59;100326.57;1761646;81;21003;-66
2022/06/26 03:36:42;;;;;;;7.10;4.92;;;;;;;19.41;83.85;100329.60;1760885;81;20999;-67
2022/06/26 03:39:09;;;;;;;9.33;4.30;;;;;;;19.54;82.89;100327.42;1761468;81;20995;-66
2022/06/26 03:41:39;;;;;;;7.22;4.28;;;;;;;19.69;81.64;100326.33;1761212;81;21047;-66
2022/06/26 03:44:07;;;;;;;9.20;4.40;;;;;;;19.83;81.36;100326.20;1759168;79;21034;-69
2022/06/26 03:46:34;;;;;;;4.87;4.00;;;;;;;19.98;80.09;100326.05;1759037;81;20991;-68
2022/06/26 03:49:02;;;;;;;9.78;4.80;;;;;;;20.11;79.89;100328.20;1757716;81;20995;-69
2022/06/26 03:51:30;;;;;;;7.67;4.22;;;;;;;20.26;78.52;100329.72;1758965;81;21044;-68
2022/06/26 03:53:58;;;;;;;8.65;4.60;;;;;;;20.41;78.01;100326.89;1751954;81;21098;-70
2022/06/26 03:56:25;;;;;;;8.15;4.47;;;;;;;20.56;77.21;100333.77;1736267;82;20985;-68
2022/06/26 03:58:52;;;;;;;9.70;4.28;;;;;;;20.73;76.20;100336.03;1741870;81;21059;-69
2022/06/26 04:01:20;;;;;;;6.05;4.03;;;;;;;20.92;75.29;100331.95;1746784;81;21043;-70
2022/06/26 04:03:48;;;;;;;5.17;4.05;;;;;;;21.08;74.17;100331.12;1729389;83;20967;-69
2022/06/26 04:06:15;;;;;;;11.33;4.30;;;;;;;21.27;73.47;100335.03;1709192;83;21100;-69
2022/06/26 04:08:45;;;;;;;6.78;4.22;;;;;;;21.45;71.68;100334.95;1729988;82;21015;-70
2022/06/26 04:11:15;;;;;;;5.58;4.05;;;;;;;21.58;71.18;100337.03;1729587;82;21087;-69
2022/06/26 04:13:45;;;;;;;5.53;4.30;;;;;;;21.74;70.20;100337.12;1729708;82;20976;-69
2022/06/26 04:16:17;;;;;;;5.55;4.22;;;;;;;21.91;69.28;100336.63;1729663;81;20991;-69
2022/06/26 04:18:46;;;;;;;8.58;4.00;;;;;;;22.09;68.52;100332.09;1729917;83;21113;-70
2022/06/26 04:21:16;;;;;;;6.80;3.85;;;;;;;22.26;67.55;100336.92;1729561;83;20963;-69
2022/06/26 04:23:44;;;;;;;4.60;3.85;;;;;;;22.43;66.40;100336.89;1715688;82;21003;-69
2022/06/26 04:26:15;;;;;;;5.35;3.92;;;;;;;22.60;65.06;100338.14;1727690;82;21503;-70
2022/06/26 04:28:42;;;;;;;10.13;3.80;;;;;;;22.75;64.90;100336.86;1741192;81;20995;-69
2022/06/26 04:31:10;;;;;;;5.80;3.92;;;;;;;22.90;64.30;100336.53;1764151;80;21104;-70
2022/06/26 04:33:43;;;;;;;5.80;4.03;;;;;;;23.03;62.83;100337.22;1738544;81;20998;-69
2022/06/26 04:36:12;;;;;;;7.20;3.95;;;;;;;23.15;63.33;100339.34;1762360;81;20951;-70
2022/06/26 04:38:43;;;;;;;4.83;3.55;;;;;;;23.37;62.01;100343.67;1734813;81;21002;-70
2022/06/26 04:44:02;;;;;;;5.67;3.90;;;;;;;23.62;60.18;100335.15;1740647;80;21160;-70
2022/06/26 04:46:34;;;;;;;6.85;3.90;;;;;;;23.72;60.60;100342.40;1745701;81;21499;-70
2022/06/26 04:49:03;;;;;;;7.42;4.05;;;;;;;23.91;59.95;100334.44;1745947;81;21018;-70
2022/06/26 04:51:35;;;;;;;4.53;3.87;;;;;;;24.11;58.94;100335.81;1768757;80;21022;-70
2022/06/26 04:54:08;;;;;;;8.18;3.40;;;;;;;24.28;58.23;100332.45;1734997;81;20960;-69
2022/06/26 04:58:45;;;;;;;6.45;3.42;;;;;;;24.66;56.72;100333.45;1755426;77;22769;-70
2022/06/26 05:01:12;;;;;;;5.35;3.35;;;;;;;24.79;56.15;100327.28;1687831;84;21105;-69
2022/06/26 05:04:13;;;;;;;5.12;3.50;;;;;;;25.03;56.09;100327.30;1707491;83;21133;-68
2022/06/26 05:06:48;;;;;;;4.67;3.30;;;;;;;25.27;55.27;100331.75;1706943;84;21062;-69
2022/06/26 05:09:17;;;;;;;10.15;3.92;;;;;;;25.49;53.81;100330.55;1707062;84;21060;-69
2022/06/26 05:11:44;;;;;;;3.90;3.50;;;;;;;25.62;52.77;100340.97;1707861;84;21084;-69
2022/06/26 05:14:13;;;;;;;5.15;3.80;;;;;;;25.81;53.40;100339.17;1708750;81;21064;-70
2022/06/26 05:16:51;;;;;;;13.80;3.40;;;;;;;25.98;52.41;100339.77;1713566;82;21209;-70
2022/06/26 05:19:20;;;;;;;5.78;3.83;;;;;;;26.06;51.04;100343.88;1699661;84;21004;-70
2022/06/26 05:21:46;;;;;;;7.08;3.45;;;;;;;26.00;51.57;100344.98;1694968;84;21049;-70
2022/06/26 05:24:13;;;;;;;5.67;3.25;;;;;;;25.96;52.22;100345.80;1666855;84;22113;-69
2022/06/26 05:26:43;;;;;;;4.20;3.30;;;;;;;26.08;52.09;100347.28;1693699;84;21072;-70
2022/06/26 05:29:10;;;;;;;4.10;3.00;;;;;;;26.35;51.74;100349.59;1677679;81;21462;-70
2022/06/26 05:31:38;;;;;;;5.20;3.10;;;;;;;26.62;51.43;100347.83;1656438;86;21113;-69
2022/06/26 05:34:05;;;;;;;3.40;3.08;;;;;;;26.90;49.53;100345.38;1656292;86;21073;-70
2022/06/26 05:36:33;;;;;;;6.47;3.20;;;;;;;27.17;48.74;100340.81;1656098;86;21052;-70
2022/06/26 05:39:02;;;;;;;6.80;3.37;;;;;;;27.36;47.93;100343.35;1656446;86;21125;-71
2022/06/26 05:41:31;;;;;;;6.37;3.20;;;;;;;27.46;48.01;100345.93;1656511;86;21140;-69
2022/06/26 05:43:58;;;;;;;5.67;3.20;;;;;;;27.72;48.12;100344.55;1648645;84;21054;-67
2022/06/26 05:46:28;;;;;;;8.95;3.87;;;;;;;28.03;47.20;100348.06;1636334;87;21089;-68
2022/06/26 05:49:13;;;;;;;6.45;3.20;;;;;;;28.33;46.09;100344.41;1636443;87;21089;-68
2022/06/26 05:51:51;;;;;;;4.30;3.00;;;;;;;28.71;45.54;100337.50;1636272;87;21057;-67
2022/06/26 05:54:19;;;;;;;3.75;2.87;;;;;;;29.04;44.51;100335.63;1609271;87;21233;-66
2022/06/26 05:57:05;;;;;;;4.37;2.60;;;;;;;29.36;44.03;100342.03;1607411;89;21101;-66
2022/06/26 05:59:36;;;;;;;3.90;3.02;;;;;;;29.61;43.03;100340.58;1639517;82;21075;-71
2022/06/26 06:02:07;;;;;;;8.50;3.15;;;;;;;29.77;42.86;100339.21;1656576;86;21570;-73
2022/06/26 06:04:34;;;;;;;8.25;3.10;;;;;;;29.90;43.05;100346.25;1658096;86;21764;-70
2022/06/26 06:07:03;;;;;;;3.75;3.00;;;;;;;30.17;41.61;100338.64;1658079;86;21236;-70
2022/06/26 06:09:31;;;;;;;4.87;2.70;;;;;;;30.56;41.63;100336.36;1657773;86;21103;-71
2022/06/26 06:11:59;;;;;;;5.35;2.75;;;;;;;30.56;41.63;100336.36;1657711;86;21055;-70
2022/06/26 06:14:26;;;;;;;3.52;2.50;;;;;;;30.81;39.55;100334.28;1626629;81;21149;-72
2022/06/26 06:16:54;;;;;;;3.27;2.60;;;;;;;30.91;39.38;100338.97;1591917;90;21120;-71
2022/06/26 06:19:22;;;;;;;3.05;2.37;;;;;;;31.15;38.57;100340.62;1591512;90;21172;-70
2022/06/26 06:21:51;;;;;;;3.52;2.70;;;;;;;31.47;37.90;100341.33;1591770;90;21180;-70
2022/06/26 06:24:17;;;;;;;4.92;2.58;;;;;;;31.56;37.48;100342.91;1592065;90;21553;-71
2022/06/26 06:26:45;;;;;;;4.25;2.60;;;;;;;31.40;38.11;100347.12;1591889;90;21148;-70
2022/06/26 06:29:13;;;;;;;6.97;2.50;;;;;;;31.37;38.06;100343.44;1606435;83;21076;-68
2022/06/26 06:31:41;;;;;;;6.90;2.87;;;;;;;31.51;37.80;100347.22;1667265;86;21151;-68
2022/06/26 06:34:08;;;;;;;3.75;2.27;;;;;;;31.71;37.34;100346.14;1667090;86;21064;-66
2022/06/26 06:36:36;;;;;;;5.22;2.15;;;;;;;31.92;36.60;100350.27;1657969;86;21083;-68
2022/06/26 06:39:04;;;;;;;2.75;1.92;;;;;;;32.21;36.07;100349.91;1667496;86;21140;-67
2022/06/26 06:41:32;;;;;;;3.80;2.22;;;;;;;32.46;35.38;100342.70;1657784;86;21101;-68
2022/06/26 06:44:04;;;;;;;4.58;2.35;;;;;;;32.76;34.49;100351.11;1652163;83;21174;-72
2022/06/26 06:46:30;;;;;;;4.37;2.10;;;;;;;32.86;34.35;100348.56;1663755;84;21104;-70
2022/06/26 06:49:02;;;;;;;5.58;2.15;;;;;;;32.89;33.28;100352.25;1661052;84;21112;-72
2022/06/26 06:51:34;;;;;;;2.00;1.65;;;;;;;32.68;33.59;100352.60;1644823;86;21145;-70
2022/06/26 06:54:02;;;;;;;4.37;2.12;;;;;;;32.64;33.79;100354.02;1647442;84;21139;-70
2022/06/26 06:56:30;;;;;;;4.53;1.95;;;;;;;32.62;34.11;100347.92;1656556;84;21797;-71
2022/06/26 06:58:58;;;;;;;3.40;1.82;;;;;;;32.76;33.13;100354.34;1650417;81;21140;-70
2022/06/26 07:01:25;;;;;;;2.87;1.60;;;;;;;32.84;32.96;100347.92;1665367;86;21049;-71
2022/06/26 07:03:53;;;;;;;4.22;1.67;;;;;;;33.03;32.28;100348.58;1665911;85;21140;-70
2022/06/26 07:06:21;;;;;;;2.83;1.80;;;;;;;33.31;31.56;100346.39;1665975;86;21081;-70
2022/06/26 07:08:48;;;;;;;4.47;1.95;;;;;;;33.47;31.83;100354.25;1665943;86;21297;-71
2022/06/26 07:11:18;;;;;;;3.33;1.47;;;;;;;33.58;31.06;100355.61;1666062;86;21121;-70
2022/06/26 07:13:45;;;;;;;1.37;1.27;;;;;;;33.63;31.09;100358.05;1674891;81;21044;-71
2022/06/26 07:16:13;;;;;;;3.70;1.70;;;;;;;33.59;30.02;100352.69;1757298;81;21064;-71
2022/06/26 07:18:39;;;;;;;2.85;1.50;;;;;;;33.42;30.48;100351.29;1757149;81;21330;-71
2022/06/26 07:21:08;;;;;;;4.12;1.42;;;;;;;33.33;30.89;100352.49;1757092;81;21586;-69
2022/06/26 07:23:36;;;;;;;4.10;1.37;;;;;;;33.31;30.23;100354.58;1757336;81;21039;-71
2022/06/26 07:26:04;;;;;;;2.58;1.50;;;;;;;33.19;30.31;100353.77;1756597;81;21063;-70
2022/06/26 07:28:36;;;;;;;6.20;1.95;;;;;;;33.01;31.59;100358.84;1755264;79;21532;-69
2022/06/26 07:31:04;;;;;;;6.05;1.60;;;;;;;32.86;30.91;100352.66;1685262;85;21102;-71
2022/06/26 07:36:16;;;;;;;4.15;1.60;;;;;;;32.50;30.61;100353.55;1684861;85;21566;-71
2022/06/26 07:38:43;;;;;;;2.87;1.70;;;;;;;32.38;32.09;100354.06;1685016;85;21337;-70
2022/06/26 07:41:10;;;;;;;7.17;1.65;;;;;;;32.64;32.49;100347.20;1685329;85;21089;-70
2022/06/26 07:43:39;;;;;;;6.45;1.70;;;;;;;32.84;32.03;100347.39;1686131;78;21553;31
2022/06/26 07:46:06;;;;;;;2.85;1.80;;;;;;;32.83;31.50;100355.27;1747735;81;21589;-70
2022/06/26 07:48:33;;;;;;;2.75;1.82;;;;;;;32.65;31.54;100357.59;1747507;82;21036;-70
2022/06/26 07:51:01;;;;;;;5.50;1.90;;;;;;;32.48;32.15;100352.37;1747523;82;21576;-72
2022/06/26 07:53:28;;;;;;;4.08;1.80;;;;;;;32.37;32.00;100353.75;1718151;82;21051;-72
2022/06/26 07:55:54;;;;;;;14.07;2.37;;;;;;;32.26;32.54;100350.70;1753793;81;21052;-73
2022/06/26 07:58:21;;;;;;;4.10;1.90;;;;;;;32.13;32.77;100354.11;1747587;81;21099;-73
2022/06/26 08:00:48;;;;;;;8.65;2.20;;;;;;;32.14;32.80;100363.95;1754199;79;21041;-71
2022/06/26 08:03:15;;;;;;;4.28;2.10;;;;;;;32.29;32.73;100371.58;1752228;81;21083;-71
2022/06/26 08:05:42;;;;;;;5.37;2.10;;;;;;;32.27;31.83;100354.57;1752433;81;21541;-71
2022/06/26 08:08:08;;;;;;;4.45;2.10;;;;;;;32.30;32.68;100361.52;1752351;81;21025;-72
2022/06/26 08:10:36;;;;;;;4.53;2.22;;;;;;;32.34;32.95;100357.37;1752445;81;21306;-70
2022/06/26 08:13:05;;;;;;;6.83;1.77;;;;;;;32.39;32.52;100358.49;1752222;80;21035;-72
2022/06/26 08:15:34;;;;;;;3.27;1.82;;;;;;;32.26;32.40;100347.97;1746925;80;21039;-73
2022/06/26 08:18:01;;;;;;;5.92;1.70;;;;;;;32.15;32.40;100369.75;1746388;82;21048;-73
2022/06/26 08:20:31;;;;;;;3.45;1.70;;;;;;;32.13;31.46;100375.90;1746509;82;21091;-71
2022/06/26 08:22:58;;;;;;;4.40;1.80;;;;;;;32.09;31.26;100360.97;1746717;82;21109;-71
2022/06/26 08:25:24;;;;;;;3.90;2.27;;;;;;;32.10;32.33;100357.22;1746535;82;21012;-70
2022/06/26 08:27:51;;;;;;;2.37;1.70;;;;;;;32.04;32.60;100360.70;1746373;82;21027;-70
2022/06/26 08:30:20;;;;;;;2.92;1.70;;;;;;;32.06;32.26;100356.75;1755106;78;20999;-71
2022/06/26 08:32:46;;;;;;;3.62;1.55;;;;;;;32.22;33.12;100358.92;1769637;80;21016;-71
2022/06/26 08:35:13;;;;;;;4.33;1.62;;;;;;;32.39;30.39;100350.31;1788766;80;21600;-70
2022/06/26 08:37:40;;;;;;;4.25;2.10;;;;;;;32.22;30.87;100357.56;1772772;80;21076;-70
2022/06/26 08:40:09;;;;;;;6.83;1.90;;;;;;;32.14;31.86;100350.33;1765893;80;21088;-69
2022/06/26 08:42:39;;;;;;;3.83;1.72;;;;;;;32.27;32.08;100361.91;1788449;80;21053;-71
2022/06/26 08:45:06;;;;;;;4.55;1.65;;;;;;;32.49;30.21;100355.97;1756541;79;21048;-71
2022/06/26 08:47:37;;;;;;;1.82;1.60;;;;;;;32.42;29.15;100354.53;1761135;80;21266;-69
2022/06/26 08:50:05;;;;;;;3.45;1.70;;;;;;;32.31;30.41;100357.24;1751008;80;21211;-70
2022/06/26 08:52:32;;;;;;;7.67;2.33;;;;;;;32.42;31.26;100357.75;1753031;80;21075;-70
2022/06/26 08:54:59;;;;;;;2.65;1.60;;;;;;;32.64;31.04;100356.75;1752729;81;21044;-71
2022/06/26 08:57:25;;;;;;;5.72;1.92;;;;;;;32.85;31.30;100345.50;1748647;81;21010;-71
2022/06/26 08:59:52;;;;;;;4.92;1.95;;;;;;;33.31;31.24;100355.94;1729749;78;21093;-70
2022/06/26 09:02:19;;;;;;;2.20;1.57;;;;;;;33.19;29.75;100360.59;1745259;82;21068;-71
2022/06/26 09:04:45;;;;;;;3.92;1.85;;;;;;;32.65;30.49;100350.28;1745592;82;20984;-72
2022/06/26 09:07:15;;;;;;;3.65;1.60;;;;;;;32.15;31.56;100358.84;1745501;82;21064;-70
2022/06/26 09:09:45;;;;;;;5.37;1.67;;;;;;;31.88;32.02;100346.23;1745497;82;21072;-69
2022/06/26 09:12:12;;;;;;;4.85;1.80;;;;;;;31.75;32.07;100363.78;1721506;82;21606;-70
2022/06/26 09:14:39;;;;;;;3.27;1.80;;;;;;;31.61;32.30;100361.41;1717431;79;21092;-72
2022/06/26 09:17:06;;;;;;;2.45;1.55;;;;;;;31.56;33.06;100348.36;1723409;83;21146;-71
2022/06/26 09:19:35;;;;;;;4.00;2.08;;;;;;;31.72;31.00;100349.17;1722818;83;21032;-72
2022/06/26 09:22:13;;;;;;;4.83;2.02;;;;;;;31.74;31.48;100344.38;1723210;83;21028;-71
2022/06/26 09:24:54;;;;;;;11.43;2.20;;;;;;;31.72;30.31;100351.89;1722796;83;21226;-70
2022/06/26 09:27:21;;;;;;;2.98;1.82;;;;;;;31.58;30.03;100352.75;1723149;83;21151;-71
2022/06/26 09:29:51;;;;;;;3.35;1.85;;;;;;;31.52;30.39;100341.59;1723442;81;21059;-71
2022/06/26 09:32:22;;;;;;;3.42;1.57;;;;;;;31.51;31.15;100350.78;1724660;83;21146;-70
2022/06/26 09:34:52;;;;;;;3.05;2.05;;;;;;;31.63;31.16;100344.34;1724612;83;21059;-71
2022/06/26 09:37:20;;;;;;;6.17;1.82;;;;;;;31.67;30.81;100348.91;1724599;81;21758;-71
2022/06/26 09:39:47;;;;;;;3.92;2.00;;;;;;;31.92;30.30;100347.55;1723886;81;21095;-72
2022/06/26 09:42:19;;;;;;;3.50;1.80;;;;;;;32.06;31.10;100345.02;1725083;83;21168;-72
2022/06/26 09:44:49;;;;;;;5.67;1.82;;;;;;;32.05;30.22;100335.14;1730127;79;21593;-72
2022/06/26 09:47:29;;;;;;;2.72;1.85;;;;;;;31.68;31.40;100331.52;1747216;82;21007;-71
2022/06/26 09:49:58;;;;;;;5.62;2.08;;;;;;;31.70;30.89;100345.79;1750461;81;21405;-72
2022/06/26 09:52:28;;;;;;;7.70;2.20;;;;;;;31.66;30.39;100341.78;1751675;81;21036;-69
2022/06/26 09:54:56;;;;;;;5.40;2.02;;;;;;;31.62;29.36;100330.94;1748971;81;21574;-71
2022/06/26 09:57:26;;;;;;;4.72;2.08;;;;;;;31.67;30.51;100335.29;1737317;81;22172;-71
2022/06/26 09:59:55;;;;;;;5.53;2.27;;;;;;;31.83;30.97;100329.63;1709099;79;21618;-72
2022/06/26 10:08:04;;;;;;;3.25;2.00;;;;;;;32.97;28.98;100328.94;1722043;83;21063;-73
2022/06/26 10:10:33;;;;;;;4.55;2.10;;;;;;;33.10;29.14;100334.50;1720419;81;21174;-74
2022/06/26 10:13:05;;;;;;;5.85;1.82;;;;;;;32.75;29.59;100334.41;1718716;82;21112;-72
2022/06/26 10:15:47;;;;;;;4.40;2.08;;;;;;;32.31;30.69;100330.52;1686259;78;21825;-71
2022/06/26 10:18:37;;;;;;;4.92;2.08;;;;;;;32.01;31.31;100340.67;1640115;87;21082;-74
2022/06/26 10:21:12;;;;;;;3.92;2.10;;;;;;;31.93;31.02;100340.21;1640577;87;21063;-73
2022/06/26 10:23:41;;;;;;;4.65;2.20;;;;;;;31.93;31.02;100340.21;1640466;87;21114;-72
2022/06/26 10:26:19;;;;;;;4.10;2.00;;;;;;;32.07;31.53;100343.97;1640332;87;21087;-71
2022/06/26 10:29:05;;;;;;;5.30;2.42;;;;;;;32.48;31.12;100339.27;1640506;87;21514;-71
2022/06/26 10:31:50;;;;;;;5.67;2.20;;;;;;;32.56;31.04;100337.82;1706626;80;21064;-73
2022/06/26 10:34:19;;;;;;;3.62;2.22;;;;;;;32.21;31.89;100340.38;1711757;83;21109;-71
2022/06/26 10:37:18;;;;;;;6.60;2.27;;;;;;;31.93;31.34;100346.53;1716894;83;21139;-72
2022/06/26 10:39:51;;;;;;;4.97;2.22;;;;;;;31.91;32.06;100343.64;1712057;82;21050;-71
2022/06/26 10:45:35;;;;;;;4.75;2.05;;;;;;;32.53;30.74;100333.61;1676388;79;21040;-73
2022/06/26 10:48:07;;;;;;;3.08;1.67;;;;;;;32.78;30.34;100332.67;1657314;85;21084;-71
2022/06/26 10:50:41;;;;;;;3.60;1.95;;;;;;;32.70;30.23;100339.62;1655224;86;21076;-72
2022/06/26 10:53:24;;;;;;;4.78;2.12;;;;;;;32.55;30.47;100330.66;1654888;85;21692;-74
2022/06/26 10:56:01;;;;;;;3.52;2.00;;;;;;;32.53;31.08;100337.70;1669412;83;21173;-73
2022/06/26 10:58:42;;;;;;;4.40;2.37;;;;;;;32.62;31.13;100342.47;1679593;85;21092;-71
2022/06/26 11:01:10;;;;;;;4.10;1.85;;;;;;;32.64;31.18;100328.66;1660530;86;21109;-72
2022/06/26 11:03:40;;;;;;;3.25;1.95;;;;;;;32.53;30.15;100336.83;1678703;85;21075;-73
2022/06/26 11:06:14;;;;;;;3.40;1.67;;;;;;;32.22;30.29;100332.52;1683641;85;21135;-72
2022/06/26 11:08:50;;;;;;;3.72;1.92;;;;;;;32.04;30.04;100341.64;1683339;85;21132;-73
2022/06/26 11:11:33;;;;;;;3.10;1.80;;;;;;;31.88;30.54;100333.98;1683529;83;21069;-72
2022/06/26 11:14:02;;;;;;;2.47;1.80;;;;;;;31.86;30.95;100341.48;1683296;85;21044;-72
2022/06/26 11:16:32;;;;;;;3.95;2.00;;;;;;;32.04;31.03;100338.91;1700981;80;21089;-73
2022/06/26 11:19:03;;;;;;;4.05;1.60;;;;;;;32.32;31.11;100331.66;1715212;83;21069;-72
2022/06/26 11:21:30;;;;;;;3.98;1.80;;;;;;;32.49;29.70;100331.44;1715365;82;21182;-71
2022/06/26 11:23:57;;;;;;;3.30;1.65;;;;;;;32.48;30.01;100338.74;1714842;83;21044;-70
2022/06/26 11:26:24;;;;;;;2.95;1.77;;;;;;;32.25;29.99;100328.03;1715032;83;21619;-71
2022/06/26 11:28:59;;;;;;;2.62;1.77;;;;;;;32.29;30.32;100333.95;1714869;83;21108;-71
2022/06/26 11:31:30;;;;;;;2.27;1.77;;;;;;;32.47;30.19;100326.69;1751430;79;20980;-72
2022/06/26 11:34:12;;;;;;;2.77;1.70;;;;;;;32.61;29.85;100321.71;1752362;79;21491;-73
2022/06/26 11:36:54;;;;;;;3.15;1.52;;;;;;;32.40;29.53;100334.80;1770481;80;21071;-74
2022/06/26 11:39:21;;;;;;;5.72;1.57;;;;;;;32.11;29.43;100328.94;1768509;80;21064;-72
2022/06/26 11:41:47;;;;;;;2.75;1.50;;;;;;;31.96;29.78;100332.55;1768155;79;21066;-74
2022/06/26 11:44:14;;;;;;;6.33;1.57;;;;;;;32.06;29.75;100331.39;1765360;80;21050;-72
2022/06/26 11:46:41;;;;;;;5.67;1.80;;;;;;;32.15;29.77;100328.87;1726750;79;21104;-71
2022/06/26 11:49:11;;;;;;;3.72;1.50;;;;;;;32.20;29.70;100334.59;1739985;82;21505;-71
2022/06/26 11:51:38;;;;;;;1.87;1.50;;;;;;;32.28;29.69;100324.94;1728932;82;21000;-71
2022/06/26 11:54:06;;;;;;;2.15;1.75;;;;;;;32.23;29.81;100316.48;1727743;82;21001;-71
2022/06/26 11:56:34;;;;;;;8.58;1.82;;;;;;;32.12;29.82;100325.19;1726763;81;20993;-71